Time;durP1;ratioP1;P1;durP2;ratioP2;P2;SDS_P1;SDS_P2;PMS_P1;PMS_P2;Temp;Humidity;BMP_temperature;BMP_pressure;BME280_temperature;BME280_humidity;BME280_pressure;Samples;Min_cycle;Max_cycle;Signal;HPM_P1;HPM_P2
2023/04/08 00:00:29;;;;;;;;;;;;;;;14.55;64.63;101959.94;1044674;28;1263;-70
2023/04/08 00:01:19;;;;;;;;;;;;;;;14.54;64.45;101960.03;1044958;28;653;-70
2023/04/08 00:02:10;;;;;;;;;;;;;;;14.54;64.55;101962.72;1044656;28;1070;-70
2023/04/08 00:03:00;;;;;;;;;;;;;;;14.52;64.55;101959.28;1041285;28;724;-70
2023/04/08 00:03:50;;;;;;;;;;;;;;;14.55;64.85;101956.41;1041555;28;725;-70
2023/04/08 00:04:41;;;;;;;;;;;;;;;14.55;64.59;101956.41;1040321;28;610;-70
2023/04/08 00:05:31;;;;;;;;;;;;;;;14.55;64.40;101956.41;1044029;28;1118;-70
2023/04/08 00:06:22;;;;;;;;;;;;;;;14.54;64.36;101966.28;1045431;28;645;-69
2023/04/08 00:07:12;;;;;;;;;;;;;;;14.53;64.58;101955.63;1041557;28;1306;-71
2023/04/08 00:08:03;;;;;;;;;;;;;;;14.54;64.62;101957.34;1040793;28;650;-69
2023/04/08 00:08:53;;;;;;;;;;;;;;;14.54;64.82;101968.94;1041112;28;1070;-71
2023/04/08 00:09:44;;;;;;;;;;;;;;;14.56;64.50;101968.84;1040702;28;614;-71
2023/04/08 00:10:34;;;;;;;;;;;;;;;14.55;64.59;101961.75;1040662;28;1102;-69
2023/04/08 00:11:25;;;;;;;;;;;;;;;14.57;64.25;101959.84;1040862;28;669;-71
2023/04/08 00:12:15;;;;;;;;;;;;;;;14.56;64.88;101963.50;1044139;28;1130;-69
2023/04/08 00:13:05;;;;;;;;;;;;;;;14.56;64.40;101966.19;1042669;28;1163;-71
2023/04/08 00:13:56;;;;;;;;;;;;;;;14.56;64.90;101961.66;1044732;28;1158;-71
2023/04/08 00:14:46;;;;;;;;;;;;;;;14.57;64.73;101970.59;1045257;28;1918;-70
2023/04/08 00:15:37;;;;;;;;;;;;;;;14.55;64.45;101961.75;1041231;28;650;-70
2023/04/08 00:16:27;;;;;;;;;;;;;;;14.55;64.83;101967.13;1042239;28;1023;-70
2023/04/08 00:17:18;;;;;;;;;;;;;;;14.55;64.38;101967.13;1045091;28;1454;-71
2023/04/08 00:18:08;;;;;;;;;;;;;;;14.53;64.28;101956.50;1044000;28;1071;-70
2023/04/08 00:18:58;;;;;;;;;;;;;;;14.54;64.47;101958.22;1044772;28;685;-70
2023/04/08 00:19:49;;;;;;;;;;;;;;;14.56;64.80;101967.03;1043818;28;669;-70
2023/04/08 00:20:39;;;;;;;;;;;;;;;14.53;64.34;101963.69;1043795;28;716;-71
2023/04/08 00:21:30;;;;;;;;;;;;;;;14.53;64.77;101963.69;1043626;28;1089;-71
2023/04/08 00:22:21;;;;;;;;;;;;;;;14.49;65.05;101957.69;1044766;28;606;-71
2023/04/08 00:23:11;;;;;;;;;;;;;;;14.50;65.08;101963.91;1041304;28;673;-71
2023/04/08 00:24:02;;;;;;;;;;;;;;;14.52;64.79;101959.28;1040545;28;1118;-71
2023/04/08 00:24:53;;;;;;;;;;;;;;;14.52;64.78;101961.97;1040744;28;626;-69
2023/04/08 00:25:43;;;;;;;;;;;;;;;14.52;64.50;101965.50;1039688;28;1102;-71
2023/04/08 00:26:34;;;;;;;;;;;;;;;14.51;64.98;101966.47;1041249;28;618;-71
2023/04/08 00:27:24;;;;;;;;;;;;;;;14.53;64.99;101958.31;1043446;28;1243;-71
2023/04/08 00:28:15;;;;;;;;;;;;;;;14.52;64.58;101961.97;1043659;28;633;-71
2023/04/08 00:29:05;;;;;;;;;;;;;;;14.51;64.42;101966.47;1044532;28;1213;-71
2023/04/08 00:29:56;;;;;;;;;;;;;;;14.54;64.35;101970.78;1044804;28;638;-71
2023/04/08 00:30:46;;;;;;;;;;;;;;;14.53;64.90;101964.53;1044550;28;995;-71
2023/04/08 00:31:37;;;;;;;;;;;;;;;14.54;64.81;101965.41;1045293;28;681;-71
2023/04/08 00:32:28;;;;;;;;;;;;;;;14.55;64.76;101967.13;1045234;28;689;-71
2023/04/08 00:33:18;;;;;;;;;;;;;;;14.56;64.22;101968.84;1040215;28;697;-71
2023/04/08 00:34:09;;;;;;;;;;;;;;;14.56;64.58;101969.72;1042721;28;740;-71
2023/04/08 00:34:59;;;;;;;;;;;;;;;14.56;64.62;101968.84;1039970;28;1934;-70
2023/04/08 00:35:50;;;;;;;;;;;;;;;14.55;64.84;101969.81;1043285;28;686;-71
2023/04/08 00:36:40;;;;;;;;;;;;;;;14.54;64.29;101971.63;1039850;28;646;-72
2023/04/08 00:37:31;;;;;;;;;;;;;;;14.53;65.07;101969.03;1039897;28;1035;-72
2023/04/08 00:38:22;;;;;;;;;;;;;;;14.52;64.38;101965.50;1039944;28;667;-72
2023/04/08 00:39:12;;;;;;;;;;;;;;;14.54;64.39;101965.41;1041247;28;642;-71
2023/04/08 00:40:03;;;;;;;;;;;;;;;14.53;64.57;101964.53;1040066;28;697;-69
2023/04/08 00:40:53;;;;;;;;;;;;;;;14.53;64.71;101969.03;1041156;28;641;-72
2023/04/08 00:41:44;;;;;;;;;;;;;;;14.49;64.43;101968.41;1039862;28;1164;-72
2023/04/08 00:42:35;;;;;;;;;;;;;;;14.49;64.66;101968.41;1040353;28;1023;-71
2023/04/08 00:43:25;;;;;;;;;;;;;;;14.49;64.43;101978.28;1040046;28;682;-71
2023/04/08 00:44:16;;;;;;;;;;;;;;;14.50;64.79;101972.81;1044750;28;708;-72
2023/04/08 00:45:06;;;;;;;;;;;;;;;14.49;64.83;101973.78;1041907;28;693;-71
2023/04/08 00:45:57;;;;;;;;;;;;;;;14.51;64.44;101971.81;1043996;28;1154;-70
2023/04/08 00:46:47;;;;;;;;;;;;;;;14.48;64.57;101972.03;1044936;28;1449;-70
2023/04/08 00:47:38;;;;;;;;;;;;;;;14.49;64.33;101971.09;1043448;28;1115;-71
2023/04/08 00:48:28;;;;;;;;;;;;;;;14.49;64.83;101978.28;1044516;28;892;-71
2023/04/08 00:49:19;;;;;;;;;;;;;;;14.50;64.37;101971.94;1044283;28;1094;-71
2023/04/08 00:50:09;;;;;;;;;;;;;;;14.51;64.77;101974.50;1045256;28;726;-71
2023/04/08 00:51:00;;;;;;;;;;;;;;;14.49;64.30;101972.91;1041111;28;682;-71
2023/04/08 00:51:51;;;;;;;;;;;;;;;14.51;64.47;101981.72;1042879;28;964;-71
2023/04/08 00:52:41;;;;;;;;;;;;;;;14.52;64.61;101970.00;1045172;28;606;-71
2023/04/08 00:53:32;;;;;;;;;;;;;;;14.51;64.68;101966.47;1041262;28;693;-71
2023/04/08 00:54:22;;;;;;;;;;;;;;;14.49;64.39;101972.91;1039389;28;662;-71
2023/04/08 00:55:13;;;;;;;;;;;;;;;14.48;64.74;101973.88;1043865;28;1045;-71
2023/04/08 00:56:03;;;;;;;;;;;;;;;14.48;65.19;101974.72;1045201;28;697;-71
2023/04/08 00:56:54;;;;;;;;;;;;;;;14.49;64.42;101975.59;1041128;28;736;-71
2023/04/08 00:57:45;;;;;;;;;;;;;;;14.49;64.94;101970.22;1041443;28;1154;-71
2023/04/08 00:58:36;;;;;;;;;;;;;;;14.44;64.97;101970.50;1041712;28;606;-71
2023/04/08 00:59:26;;;;;;;;;;;;;;;14.45;64.64;101971.38;1039966;28;701;-71
2023/04/08 01:00:16;;;;;;;;;;;;;;;14.44;65.19;101970.50;1040420;28;564;-71
2023/04/08 01:01:07;;;;;;;;;;;;;;;14.43;65.01;101974.16;1040899;28;1103;-71
2023/04/08 01:01:57;;;;;;;;;;;;;;;14.44;64.94;101972.31;1044736;28;632;-71
2023/04/08 01:02:48;;;;;;;;;;;;;;;14.38;65.05;101970.00;1043342;28;1165;-71
2023/04/08 01:03:38;;;;;;;;;;;;;;;14.35;64.93;101971.03;1044087;28;642;-71
2023/04/08 01:04:28;;;;;;;;;;;;;;;14.39;64.99;101977.94;1044321;28;1019;-70
2023/04/08 01:05:20;;;;;;;;;;;;;;;14.40;65.04;101974.34;1045138;28;1050;-71
2023/04/08 01:06:10;;;;;;;;;;;;;;;14.43;64.88;101974.16;1043043;28;700;-71
2023/04/08 01:07:01;;;;;;;;;;;;;;;14.44;64.70;101967.81;1043985;28;1204;-71
2023/04/08 01:07:51;;;;;;;;;;;;;;;14.45;65.04;101979.41;1045076;28;646;-71
2023/04/08 01:08:41;;;;;;;;;;;;;;;14.42;65.16;101974.25;1040475;28;759;-71
2023/04/08 01:09:32;;;;;;;;;;;;;;;14.42;64.97;101975.09;1040157;28;1070;-71
2023/04/08 01:10:22;;;;;;;;;;;;;;;14.41;64.95;101980.56;1040139;28;595;-71
2023/04/08 01:11:13;;;;;;;;;;;;;;;14.40;65.33;101974.34;1043658;28;1122;-71
2023/04/08 01:12:03;;;;;;;;;;;;;;;14.42;65.31;101974.25;1041032;28;1361;-71
2023/04/08 01:12:54;;;;;;;;;;;;;;;14.45;64.72;101982.09;1041668;28;1017;-70
2023/04/08 01:13:45;;;;;;;;;;;;;;;14.45;64.67;101980.28;1042387;28;1276;-71
2023/04/08 01:14:35;;;;;;;;;;;;;;;14.46;64.53;101982.00;1041999;28;1098;-71
2023/04/08 01:15:25;;;;;;;;;;;;;;;14.49;64.61;101980.97;1041100;28;658;-71
2023/04/08 01:16:16;;;;;;;;;;;;;;;14.49;64.87;101980.97;1040890;28;1122;-71
2023/04/08 01:17:06;;;;;;;;;;;;;;;14.48;64.62;101981.91;1040606;28;720;-71
2023/04/08 01:17:57;;;;;;;;;;;;;;;14.46;65.16;101975.78;1041207;28;636;-71
2023/04/08 01:18:47;;;;;;;;;;;;;;;14.45;65.20;101982.09;1042571;28;1067;-71
2023/04/08 01:19:38;;;;;;;;;;;;;;;14.42;64.88;101983.16;1044591;28;685;-71
2023/04/08 01:20:28;;;;;;;;;;;;;;;14.44;65.22;101977.69;1043862;28;1189;-71
2023/04/08 01:21:19;;;;;;;;;;;;;;;14.44;65.44;101985.75;1044361;28;1103;-70
2023/04/08 01:22:09;;;;;;;;;;;;;;;14.45;65.04;101982.09;1045217;28;690;-70
2023/04/08 01:23:00;;;;;;;;;;;;;;;14.46;65.29;101983.81;1044481;28;607;-70
2023/04/08 01:23:50;;;;;;;;;;;;;;;14.44;65.15;101981.25;1043516;28;677;-71
2023/04/08 01:24:41;;;;;;;;;;;;;;;14.41;64.89;101986.78;1043572;28;646;-71
2023/04/08 01:25:31;;;;;;;;;;;;;;;14.44;65.02;101985.75;1045223;28;713;-71
2023/04/08 01:26:22;;;;;;;;;;;;;;;14.42;65.33;101988.50;1044914;28;1457;-71
2023/04/08 01:27:12;;;;;;;;;;;;;;;14.42;65.32;101983.16;1045144;28;692;-71
2023/04/08 01:28:03;;;;;;;;;;;;;;;14.41;64.95;101980.56;1040508;28;622;-71
2023/04/08 01:28:53;;;;;;;;;;;;;;;14.43;64.87;101979.50;1044574;28;634;-71
2023/04/08 01:29:44;;;;;;;;;;;;;;;14.43;64.82;101979.50;1044829;28;1091;-71
2023/04/08 01:30:34;;;;;;;;;;;;;;;14.46;65.12;101978.47;1041072;28;644;-70
2023/04/08 01:31:25;;;;;;;;;;;;;;;14.48;64.44;101981.91;1040296;28;758;-70
2023/04/08 01:32:15;;;;;;;;;;;;;;;14.46;64.77;101983.81;1043895;28;619;-70
2023/04/08 01:33:06;;;;;;;;;;;;;;;14.45;64.63;101980.28;1040648;28;730;-71
2023/04/08 01:33:56;;;;;;;;;;;;;;;14.45;64.29;101984.78;1044899;28;1145;-70
2023/04/08 01:34:47;;;;;;;;;;;;;;;14.45;65.17;101976.72;1045011;28;1963;-70
2023/04/08 01:35:37;;;;;;;;;;;;;;;14.46;65.29;101981.13;1040786;28;630;-70
2023/04/08 01:36:28;;;;;;;;;;;;;;;14.46;65.26;101986.50;1040973;28;964;-71
2023/04/08 01:37:18;;;;;;;;;;;;;;;14.45;65.12;101987.47;1045167;28;653;-70
2023/04/08 01:38:08;;;;;;;;;;;;;;;14.46;65.25;101978.47;1044451;28;948;-70
2023/04/08 01:38:59;;;;;;;;;;;;;;;14.44;65.29;101980.38;1045144;28;665;-70
2023/04/08 01:39:49;;;;;;;;;;;;;;;14.45;64.91;101987.47;1044459;28;705;-70
2023/04/08 01:40:40;;;;;;;;;;;;;;;14.45;64.72;101982.09;1040976;28;607;-70
2023/04/08 01:41:30;;;;;;;;;;;;;;;14.46;64.91;101990.06;1043896;28;649;-71
2023/04/08 01:42:20;;;;;;;;;;;;;;;14.45;64.60;101982.09;1043645;28;1108;-70
2023/04/08 01:43:11;;;;;;;;;;;;;;;14.46;64.86;101983.81;1045167;28;876;-70
2023/04/08 01:44:01;;;;;;;;;;;;;;;14.46;64.82;101987.38;1043913;28;1166;-70
2023/04/08 01:44:52;;;;;;;;;;;;;;;14.45;65.00;101988.31;1041512;28;638;-70
2023/04/08 01:45:42;;;;;;;;;;;;;;;14.46;64.94;101989.19;1041295;28;567;-70
2023/04/08 01:46:33;;;;;;;;;;;;;;;14.44;64.58;101980.38;1039996;28;665;-70
2023/04/08 01:47:23;;;;;;;;;;;;;;;14.46;65.01;101978.47;1039399;28;1142;-70
2023/04/08 01:48:13;;;;;;;;;;;;;;;14.44;65.16;101983.91;1041036;28;633;-70
2023/04/08 01:49:04;;;;;;;;;;;;;;;14.47;65.10;101990.91;1039690;28;1135;-70
2023/04/08 01:49:54;;;;;;;;;;;;;;;14.49;65.08;101995.22;1041116;28;733;-70
2023/04/08 01:50:45;;;;;;;;;;;;;;;14.47;64.79;101985.56;1040773;28;650;-70
2023/04/08 01:51:35;;;;;;;;;;;;;;;14.48;64.95;101990.81;1045105;28;681;-71
2023/04/08 01:52:26;;;;;;;;;;;;;;;14.47;64.97;101988.22;1042568;28;1162;-71
2023/04/08 01:53:16;;;;;;;;;;;;;;;14.44;65.13;101988.41;1044518;28;783;-71
2023/04/08 01:54:07;;;;;;;;;;;;;;;14.44;64.86;101988.41;1042726;28;666;-70
2023/04/08 01:54:57;;;;;;;;;;;;;;;14.44;64.84;101988.41;1044298;28;1937;-71
2023/04/08 01:55:47;;;;;;;;;;;;;;;14.44;64.77;101989.28;1044955;28;1373;-70
2023/04/08 01:56:38;;;;;;;;;;;;;;;14.43;64.66;101994.75;1039717;28;650;-70
2023/04/08 01:57:28;;;;;;;;;;;;;;;14.46;64.69;101991.88;1043932;28;679;-70
2023/04/08 01:58:19;;;;;;;;;;;;;;;14.46;64.90;101992.72;1041001;28;669;-70
2023/04/08 01:59:10;;;;;;;;;;;;;;;14.47;64.48;101985.56;1043426;28;700;-70
2023/04/08 02:00:00;;;;;;;;;;;;;;;14.45;64.99;101991.00;1043347;28;1146;-70
2023/04/08 02:00:50;;;;;;;;;;;;;;;14.44;64.72;101993.78;1041418;28;701;-70
2023/04/08 02:01:41;;;;;;;;;;;;;;;14.44;64.51;101991.97;1039681;28;1209;-70
2023/04/08 02:02:31;;;;;;;;;;;;;;;14.44;64.83;101986.59;1045126;28;621;-70
2023/04/08 02:03:22;;;;;;;;;;;;;;;14.45;64.63;101992.81;1044874;28;1046;-71
2023/04/08 02:04:12;;;;;;;;;;;;;;;14.47;64.82;101988.22;1040849;28;1150;-70
2023/04/08 02:05:03;;;;;;;;;;;;;;;14.45;64.49;101988.31;1040364;28;627;-70
2023/04/08 02:05:53;;;;;;;;;;;;;;;14.45;64.54;101990.16;1040398;28;1036;-70
2023/04/08 02:06:43;;;;;;;;;;;;;;;14.45;64.85;101982.09;1039855;28;770;-70
2023/04/08 02:07:34;;;;;;;;;;;;;;;14.45;65.06;101982.97;1044794;28;1187;-70
2023/04/08 02:08:24;;;;;;;;;;;;;;;14.41;64.68;101986.78;1045027;28;698;-70
2023/04/08 02:09:15;;;;;;;;;;;;;;;14.43;65.14;101987.56;1044313;28;1158;-70
2023/04/08 02:10:05;;;;;;;;;;;;;;;14.42;65.07;101993.88;1045005;28;743;-71
2023/04/08 02:10:55;;;;;;;;;;;;;;;14.45;65.16;101992.81;1044544;28;1382;-71
2023/04/08 02:11:46;;;;;;;;;;;;;;;14.44;65.09;101986.59;1041830;28;689;-71
2023/04/08 02:12:36;;;;;;;;;;;;;;;14.45;65.00;101993.69;1044800;28;1099;-71
2023/04/08 02:13:27;;;;;;;;;;;;;;;14.44;64.50;101991.09;1043624;28;637;-71
2023/04/08 02:14:17;;;;;;;;;;;;;;;14.45;64.76;101993.69;1044314;28;1142;-71
2023/04/08 02:15:08;;;;;;;;;;;;;;;14.44;65.12;101991.09;1045056;28;1967;-71
2023/04/08 02:15:58;;;;;;;;;;;;;;;14.41;64.57;101991.28;1040965;28;752;-71
2023/04/08 02:16:48;;;;;;;;;;;;;;;14.42;65.10;101993.00;1043574;28;1000;-71
2023/04/08 02:17:39;;;;;;;;;;;;;;;14.43;64.52;101984.00;1045066;28;682;-71
2023/04/08 02:18:30;;;;;;;;;;;;;;;14.42;65.01;101988.50;1040702;28;1122;-71
2023/04/08 02:19:21;;;;;;;;;;;;;;;14.44;65.14;101991.09;1039730;28;630;-71
2023/04/08 02:20:11;;;;;;;;;;;;;;;14.43;64.59;101997.41;1044837;28;1062;-71
2023/04/08 02:21:02;;;;;;;;;;;;;;;14.43;64.50;101995.59;1044999;28;603;-71
2023/04/08 02:21:52;;;;;;;;;;;;;;;14.41;64.57;101994.84;1041189;28;1074;-71
2023/04/08 02:22:42;;;;;;;;;;;;;;;14.42;64.79;101988.50;1040709;28;665;-71
2023/04/08 02:23:33;;;;;;;;;;;;;;;14.43;64.97;101990.25;1040768;28;1027;-71
2023/04/08 02:24:23;;;;;;;;;;;;;;;14.42;64.56;101996.56;1040976;28;701;-71
2023/04/08 02:25:14;;;;;;;;;;;;;;;14.44;64.92;101996.47;1044317;28;1492;-71
2023/04/08 02:26:04;;;;;;;;;;;;;;;14.42;64.68;101993.00;1041708;28;701;-70
2023/04/08 02:26:55;;;;;;;;;;;;;;;14.44;64.72;101994.66;1043623;28;1185;-70
2023/04/08 02:27:48;;;;;;;;;;;;;;;14.45;64.71;101992.81;1044929;28;724;-70
2023/04/08 02:28:38;;;;;;;;;;;;;;;14.45;64.90;101990.16;1043784;28;1308;-70
2023/04/08 02:29:28;;;;;;;;;;;;;;;14.47;64.68;101990.91;1044931;28;999;-70
2023/04/08 02:30:19;;;;;;;;;;;;;;;14.46;64.52;101994.56;1040383;28;586;-70
2023/04/08 02:31:12;;;;;;;;;;;;;;;14.48;64.77;101992.63;1042820;28;1122;-70
2023/04/08 02:32:02;;;;;;;;;;;;;;;14.45;64.90;101992.81;1045309;28;618;-70
2023/04/08 02:32:53;;;;;;;;;;;;;;;14.46;64.83;101994.56;1043896;28;1079;-70
2023/04/08 02:33:43;;;;;;;;;;;;;;;14.44;64.50;101994.66;1044131;28;720;-70
2023/04/08 02:34:34;;;;;;;;;;;;;;;14.45;64.92;101992.81;1045010;28;658;-70
2023/04/08 02:35:24;;;;;;;;;;;;;;;14.43;64.79;102000.09;1044514;28;1110;-70
2023/04/08 02:36:15;;;;;;;;;;;;;;;14.44;65.21;101991.97;1044163;28;717;-70
2023/04/08 02:37:05;;;;;;;;;;;;;;;14.45;65.26;101999.06;1044167;28;736;-70
2023/04/08 02:37:56;;;;;;;;;;;;;;;14.44;64.86;101997.31;1041071;28;747;-71
2023/04/08 02:38:46;;;;;;;;;;;;;;;14.47;64.72;102002.50;1041094;28;749;-70
2023/04/08 02:39:36;;;;;;;;;;;;;;;14.44;65.00;102005.38;1044181;28;1190;-71
2023/04/08 02:40:27;;;;;;;;;;;;;;;14.47;65.06;101998.97;1045771;28;661;-71
2023/04/08 02:41:17;;;;;;;;;;;;;;;14.44;64.61;102009.88;1044400;28;1323;-70
2023/04/08 02:42:08;;;;;;;;;;;;;;;14.44;65.15;102002.69;1045277;28;673;-71
2023/04/08 02:42:58;;;;;;;;;;;;;;;14.44;65.19;102002.69;1041176;28;684;-71
2023/04/08 02:43:54;;;;;;;;;;;;;;;14.44;65.14;102008.06;1042478;28;905;-71
2023/04/08 02:44:44;;;;;;;;;;;;;;;14.46;64.94;102002.59;1045716;28;713;-71
2023/04/08 02:45:35;;;;;;;;;;;;;;;14.45;64.67;101999.06;1045294;28;717;-71
2023/04/08 02:46:25;;;;;;;;;;;;;;;14.44;64.73;102007.19;1044147;28;649;-71
2023/04/08 02:47:16;;;;;;;;;;;;;;;14.45;65.07;102014.28;1044283;28;631;-72
2023/04/08 02:48:06;;;;;;;;;;;;;;;14.43;65.00;102005.47;1040727;28;1207;-72
2023/04/08 02:48:57;;;;;;;;;;;;;;;14.43;65.21;102010.84;1042292;28;637;-72
2023/04/08 02:49:47;;;;;;;;;;;;;;;14.41;64.78;102007.38;1044724;28;630;-71
2023/04/08 02:50:39;;;;;;;;;;;;;;;14.41;64.90;102010.94;1043227;28;1058;-71
2023/04/08 02:51:30;;;;;;;;;;;;;;;14.40;65.28;102010.97;1045022;28;638;-71
2023/04/08 02:52:21;;;;;;;;;;;;;;;14.40;65.02;102009.19;1041667;28;693;-71
2023/04/08 02:53:11;;;;;;;;;;;;;;;14.43;65.20;102005.47;1041601;28;689;-71
2023/04/08 02:54:02;;;;;;;;;;;;;;;14.41;65.07;102008.25;1045787;28;788;-72
2023/04/08 02:54:52;;;;;;;;;;;;;;;14.40;65.11;102011.88;1042168;28;1894;-71
2023/04/08 02:55:43;;;;;;;;;;;;;;;14.42;64.94;102009.97;1045508;28;1428;-71
2023/04/08 02:56:33;;;;;;;;;;;;;;;14.43;64.70;102005.47;1042326;28;716;-72
2023/04/08 02:57:24;;;;;;;;;;;;;;;14.42;64.98;102009.09;1044552;28;1146;-71
2023/04/08 02:58:14;;;;;;;;;;;;;;;14.43;64.84;102010.84;1044032;28;713;-71
2023/04/08 02:59:05;;;;;;;;;;;;;;;14.42;64.97;102009.09;1041038;28;630;-71
2023/04/08 02:59:55;;;;;;;;;;;;;;;14.42;64.92;102011.78;1044442;28;750;-70
2023/04/08 03:00:46;;;;;;;;;;;;;;;14.45;65.04;102008.91;1040219;28;1322;-70
2023/04/08 03:01:36;;;;;;;;;;;;;;;14.46;64.48;102014.19;1044862;28;774;-70
2023/04/08 03:02:27;;;;;;;;;;;;;;;14.44;64.94;102008.06;1039746;28;630;-71
2023/04/08 03:03:17;;;;;;;;;;;;;;;14.40;65.02;102010.97;1045780;28;664;-71
2023/04/08 03:04:08;;;;;;;;;;;;;;;14.40;65.09;102011.88;1045564;28;1170;-71
2023/04/08 03:04:58;;;;;;;;;;;;;;;14.40;64.77;102010.97;1041083;28;706;-71
2023/04/08 03:05:48;;;;;;;;;;;;;;;14.40;64.90;102011.88;1040454;28;1111;-71
2023/04/08 03:06:39;;;;;;;;;;;;;;;14.40;64.94;102017.25;1041490;28;689;-71
2023/04/08 03:07:29;;;;;;;;;;;;;;;14.41;64.94;102018.09;1041353;28;1262;-71
2023/04/08 03:08:20;;;;;;;;;;;;;;;14.41;64.83;102012.75;1043344;28;1095;-71
2023/04/08 03:09:10;;;;;;;;;;;;;;;14.41;64.56;102015.44;1044897;28;721;-70
2023/04/08 03:10:01;;;;;;;;;;;;;;;14.41;64.75;102020.78;1042165;28;678;-71
2023/04/08 03:10:51;;;;;;;;;;;;;;;14.38;64.82;102013.75;1041400;28;674;-71
2023/04/08 03:11:43;;;;;;;;;;;;;;;14.40;64.96;102019.03;1041588;28;910;-71
2023/04/08 03:12:34;;;;;;;;;;;;;;;14.37;65.13;102016.53;1042061;28;956;-71
2023/04/08 03:13:24;;;;;;;;;;;;;;;14.35;65.37;102015.75;1041607;28;630;-70
2023/04/08 03:14:16;;;;;;;;;;;;;;;14.38;64.60;102015.56;1043172;28;936;-71
2023/04/08 03:15:07;;;;;;;;;;;;;;;14.39;65.01;102017.31;1045591;28;1906;-70
2023/04/08 03:15:57;;;;;;;;;;;;;;;14.36;64.80;102017.50;1045373;28;1059;-71
2023/04/08 03:16:48;;;;;;;;;;;;;;;14.35;65.15;102013.09;1045579;28;626;-70
2023/04/08 03:17:38;;;;;;;;;;;;;;;14.37;64.68;102017.41;1045554;28;757;-71
2023/04/08 03:18:29;;;;;;;;;;;;;;;14.37;65.01;102021.91;1044360;28;630;-70
2023/04/08 03:19:19;;;;;;;;;;;;;;;14.36;65.23;102014.81;1045213;28;683;-70
2023/04/08 03:20:10;;;;;;;;;;;;;;;14.35;65.02;102019.31;1044949;28;1082;-70
2023/04/08 03:21:02;;;;;;;;;;;;;;;14.36;65.12;102014.81;1041592;28;673;-70
2023/04/08 03:21:52;;;;;;;;;;;;;;;14.37;64.95;102011.16;1043988;28;650;-70
2023/04/08 03:22:42;;;;;;;;;;;;;;;14.37;65.29;102011.16;1041309;28;1058;-70
2023/04/08 03:23:33;;;;;;;;;;;;;;;14.39;64.89;102022.66;1040984;28;602;-70
2023/04/08 03:24:23;;;;;;;;;;;;;;;14.41;64.78;102020.78;1041530;28;705;-70
2023/04/08 03:25:14;;;;;;;;;;;;;;;14.41;64.69;102020.78;1041265;28;1267;-70
2023/04/08 03:26:04;;;;;;;;;;;;;;;14.38;65.25;102012.91;1040484;28;697;-70
2023/04/08 03:26:55;;;;;;;;;;;;;;;14.39;65.32;102022.66;1043843;28;1106;-70
2023/04/08 03:27:45;;;;;;;;;;;;;;;14.40;65.44;102021.72;1044505;28;642;-70
2023/04/08 03:28:36;;;;;;;;;;;;;;;14.43;65.13;102024.25;1044177;28;1189;-69
2023/04/08 03:29:26;;;;;;;;;;;;;;;14.39;64.95;102018.16;1044743;28;1146;-70
2023/04/08 03:30:16;;;;;;;;;;;;;;;14.35;65.31;102018.44;1045643;28;733;-70
2023/04/08 03:31:07;;;;;;;;;;;;;;;14.35;64.81;102015.75;1041472;28;630;-69
2023/04/08 03:31:57;;;;;;;;;;;;;;;14.35;65.10;102016.63;1043517;28;725;-69
2023/04/08 03:32:48;;;;;;;;;;;;;;;14.33;64.93;102015.84;1044802;28;1090;-70
2023/04/08 03:33:38;;;;;;;;;;;;;;;14.33;64.87;102020.38;1045311;28;1030;-70
2023/04/08 03:34:29;;;;;;;;;;;;;;;14.32;65.42;102016.84;1044899;28;759;-70
2023/04/08 03:35:19;;;;;;;;;;;;;;;14.28;65.15;102017.13;1045594;28;1217;-69
2023/04/08 03:36:11;;;;;;;;;;;;;;;14.30;64.99;102020.56;1044774;28;638;-69
2023/04/08 03:37:01;;;;;;;;;;;;;;;14.29;65.27;102024.22;1045023;28;677;-70
2023/04/08 03:37:51;;;;;;;;;;;;;;;14.29;65.60;102024.22;1045507;28;649;-69
2023/04/08 03:38:42;;;;;;;;;;;;;;;14.25;65.43;102021.72;1045478;28;1074;-69
2023/04/08 03:39:32;;;;;;;;;;;;;;;14.25;65.13;102024.38;1045492;28;736;-70
2023/04/08 03:40:23;;;;;;;;;;;;;;;14.28;65.36;102023.34;1045600;28;610;-70
2023/04/08 03:41:13;;;;;;;;;;;;;;;14.33;65.26;102026.59;1040642;28;708;-70
2023/04/08 03:42:04;;;;;;;;;;;;;;;14.37;65.08;102021.91;1045525;28;669;-70
2023/04/08 03:42:54;;;;;;;;;;;;;;;14.38;65.40;102031.66;1041840;28;660;-70
2023/04/08 03:43:45;;;;;;;;;;;;;;;14.37;65.28;102021.91;1043626;28;618;-70
2023/04/08 03:44:35;;;;;;;;;;;;;;;14.37;64.92;102028.13;1045275;28;1146;-70
2023/04/08 03:45:25;;;;;;;;;;;;;;;14.39;64.83;102025.34;1045097;28;880;-70
2023/04/08 03:46:16;;;;;;;;;;;;;;;14.39;64.98;102025.34;1044697;28;1058;-70
2023/04/08 03:47:06;;;;;;;;;;;;;;;14.36;65.21;102031.75;1045022;28;657;-70
2023/04/08 03:47:57;;;;;;;;;;;;;;;14.35;65.02;102029.16;1044077;28;1007;-70
2023/04/08 03:48:47;;;;;;;;;;;;;;;14.35;65.21;102030.03;1044564;28;709;-70
2023/04/08 03:49:38;;;;;;;;;;;;;;;14.34;65.35;102038.16;1043690;28;692;-70
2023/04/08 03:50:28;;;;;;;;;;;;;;;14.36;65.71;102030.91;1044916;28;634;-70
2023/04/08 03:51:18;;;;;;;;;;;;;;;14.36;64.90;102036.25;1044986;28;744;-70
2023/04/08 03:52:09;;;;;;;;;;;;;;;14.39;65.40;102033.41;1044864;28;610;-70
2023/04/08 03:52:59;;;;;;;;;;;;;;;14.38;64.89;102034.34;1044828;28;1144;-71
2023/04/08 03:53:50;;;;;;;;;;;;;;;14.37;65.33;102037.97;1044518;28;1193;-71
2023/04/08 03:54:40;;;;;;;;;;;;;;;14.36;64.91;102033.56;1041727;28;1409;-71
2023/04/08 03:55:31;;;;;;;;;;;;;;;14.35;65.08;102034.53;1040059;28;629;-71
2023/04/08 03:56:21;;;;;;;;;;;;;;;14.33;65.50;102037.31;1041323;28;622;-71
2023/04/08 03:57:12;;;;;;;;;;;;;;;14.32;65.16;102040.13;1039886;28;626;-71
2023/04/08 03:58:02;;;;;;;;;;;;;;;14.32;65.49;102037.44;1041475;28;677;-70
2023/04/08 03:58:52;;;;;;;;;;;;;;;14.29;65.56;102038.47;1041456;28;1091;-71
2023/04/08 03:59:43;;;;;;;;;;;;;;;14.29;65.46;102041.16;1045256;28;1134;-71
2023/04/08 04:00:33;;;;;;;;;;;;;;;14.29;65.23;102046.53;1045346;28;741;-71
2023/04/08 04:01:24;;;;;;;;;;;;;;;14.30;64.96;102037.53;1043855;28;646;-71
2023/04/08 04:02:14;;;;;;;;;;;;;;;14.32;64.85;102040.13;1041853;28;760;-71
2023/04/08 04:03:05;;;;;;;;;;;;;;;14.33;64.96;102042.66;1044156;28;1122;-70
2023/04/08 04:03:55;;;;;;;;;;;;;;;14.35;65.27;102037.22;1044923;28;674;-70
2023/04/08 04:04:46;;;;;;;;;;;;;;;14.34;65.21;102041.72;1043672;28;1246;-70
2023/04/08 04:05:36;;;;;;;;;;;;;;;14.33;64.92;102041.84;1044544;28;692;-70
2023/04/08 04:06:27;;;;;;;;;;;;;;;14.36;65.31;102038.94;1044160;28;681;-71
2023/04/08 04:07:17;;;;;;;;;;;;;;;14.37;65.08;102043.34;1043840;28;1061;-71
2023/04/08 04:08:08;;;;;;;;;;;;;;;14.37;65.22;102048.72;1044993;28;698;-70
2023/04/08 04:08:58;;;;;;;;;;;;;;;14.32;65.43;102046.34;1044225;28;664;-70
2023/04/08 04:09:52;;;;;;;;;;;;;;;14.32;64.87;102051.69;1040606;28;1317;-70
2023/04/08 04:10:43;;;;;;;;;;;;;;;14.34;65.34;102043.53;1040752;28;689;-70
2023/04/08 04:11:34;;;;;;;;;;;;;;;14.36;64.99;102047.84;1039912;28;1502;-70
2023/04/08 04:12:25;;;;;;;;;;;;;;;14.37;64.86;102046.91;1040782;28;661;-70
2023/04/08 04:13:15;;;;;;;;;;;;;;;14.38;65.23;102045.06;1043222;28;1263;-70
2023/04/08 04:14:06;;;;;;;;;;;;;;;14.36;65.44;102055.03;1040647;28;634;-70
2023/04/08 04:14:56;;;;;;;;;;;;;;;14.35;64.97;102045.25;1041106;28;1905;-70
2023/04/08 04:15:47;;;;;;;;;;;;;;;14.31;65.27;102055.34;1044746;28;642;-70
2023/04/08 04:16:37;;;;;;;;;;;;;;;14.34;65.01;102044.41;1041805;28;641;-70
2023/04/08 04:17:28;;;;;;;;;;;;;;;14.34;65.38;102046.22;1043807;28;614;-70
2023/04/08 04:18:18;;;;;;;;;;;;;;;14.33;65.28;102055.25;1044517;28;1241;-70
2023/04/08 04:19:08;;;;;;;;;;;;;;;14.34;65.54;102051.56;1044881;28;649;-70
2023/04/08 04:19:59;;;;;;;;;;;;;;;14.33;65.28;102048.03;1044549;28;917;-70
2023/04/08 04:20:49;;;;;;;;;;;;;;;14.35;64.97;102055.97;1045574;28;768;-70
2023/04/08 04:21:40;;;;;;;;;;;;;;;14.34;65.09;102059.63;1044306;28;674;-70
2023/04/08 04:22:30;;;;;;;;;;;;;;;14.37;64.76;102064.81;1043932;28;641;-70
2023/04/08 04:23:23;;;;;;;;;;;;;;;14.39;64.76;102060.22;1044133;28;679;-71
2023/04/08 04:24:13;;;;;;;;;;;;;;;14.36;64.75;102055.91;1044588;28;1108;-71
2023/04/08 04:25:04;;;;;;;;;;;;;;;14.33;64.99;102057.94;1041892;28;634;-71